Atlantic - Newfoundland: Past 24 Hour Conditions

 

Northeast Burgeo Bank - 44255

06:00 PM ADT 20 October 2014Buoy position: 47.27N 57.37W
This table is a summary of hourly weather conditions for the past 24 hours.
Date / Time
(ADT)
Wind(knots) Wave height(m) Wave period(s) Pressure(kPa) Air tempC) Water tempC)
20 October 2014
18:00 W 29 gust 39 3.9 8.0 100.4 9 11
17:00 W 27 gust 35 3.7 9.0 100.3 10 11
16:00 WSW 23 gust 29 3.6 8.0 100.2 10 11
15:00 W 23 gust 31 3.8 8.0 100.1 9 11
14:00 W 27 gust 33 3.9 8.0 99.9 10 11
13:00 W 29 gust 35 3.5 9.0 99.8 10 12
12:00 WSW 27 gust 37 3.3 8.0 99.7 11 12
11:00 WSW 29 gust 35 3.5 8.0 99.5 12 12
10:00 SW 29 gust 37 3.5 11.0 99.3 13 12
9:00 SSW 27 gust 33 3.2 8.0 99.0 14 12
8:00 SSE 27 gust 31 3.0 10.0 99.0 15 12
7:00 SE 23 gust 27 2.8 10.0 99.2 15 12
6:00 SE 25 gust 31 2.9 10.0 99.2 15 12
5:00 SSE 27 gust 33 2.5 9.0 99.5 15 12
4:00 SE 14 gust 19 2.4 10.0 99.6 15 12
3:00 ENE 14 gust 18 2.7 11.0 99.9 13 12
2:00 E 6 gust 12 2.6 13.0 100.3 13 12
1:00 NE 4 gust 8 2.8 12.0 100.2 13 12
0:00 SE 10 gust 16 2.8 14.0 100.4 13 12
19 October 2014
23:00 SE 12 gust 14 2.8 12.0 100.5 13 12
22:00 SE 10 gust 14 2.8 14.0 100.6 13 12
21:00 SSE 12 gust 14 2.7 13.0 100.6 13 12
20:00 SSE 14 gust 18 2.9 12.0 100.7 13 12
19:00 SSE 12 gust 14 3.1 14.0 100.7 13 12
18:00 S 14 gust 16 3.5 13.0 100.7 13 12
 
Map of Atlantic - Newfoundland marine weather areas Southwestern Grand Banks - 44138 Banquereau - 44139 Tail of the Bank - 44140 Nickerson Bank - 44251 Northeast Burgeo Bank - 44255 Blanc-Sablon Airport Cap Whittle Chevery Natashquan Airport Heath Point Miscou Island Grand Étang Ingonish Beach North Mountain St.Paul Island J.A. Douglas McCurdy Sydney Airport Charlottetown Airport East Point North Cape Argentia Bonavista Burgeo Cape Race Corner Brook Daniel's Harbour Englee Ferolle Point La Scie Port aux Basques Rocky Harbour Sagona Island St. Anthony Airport St. John's Int'l Airport St. Lawrence Stephenville Airport Twillingate Winterland Wreckhouse Cartwright Airport Mary's Harbour Grates Cove Pool's Island Marticot Island Long Pond Îles de la Madeleine Airport
Legend: buoyBuoy land stationLand Station